Time;durP1;ratioP1;P1;durP2;ratioP2;P2;SDS_P1;SDS_P2;PMS_P1;PMS_P2;Temp;Humidity;BMP_temperature;BMP_pressure;BME280_temperature;BME280_humidity;BME280_pressure;Samples;Min_cycle;Max_cycle;Signal;HPM_P1;HPM_P2
2023/10/05 00:03:30;;;;;;;9.02;2.97;;;11.60;99.90;;;;;;4949390;28;20035;-64
2023/10/05 00:06:13;;;;;;;7.30;2.70;;;11.60;99.90;;;;;;4944641;28;20032;-63
2023/10/05 00:08:45;;;;;;;6.47;3.15;;;11.60;99.90;;;;;;4941982;28;20065;-63
2023/10/05 00:11:23;;;;;;;6.60;3.22;;;11.50;99.90;;;;;;4947182;28;20744;-63
2023/10/05 00:14:10;;;;;;;8.15;3.05;;;11.50;99.90;;;;;;4975336;28;20035;-64
2023/10/05 00:16:37;;;;;;;9.63;2.97;;;11.50;99.90;;;;;;4950748;28;20023;-62
2023/10/05 00:19:07;;;;;;;;;;;11.50;99.90;;;;;;4950731;28;20047;-62
2023/10/05 00:21:35;;;;;;;6.00;3.33;;;11.50;99.90;;;;;;4949927;28;20017;-63
2023/10/05 00:24:06;;;;;;;9.90;2.92;;;11.50;99.90;;;;;;4952124;28;20035;-64
2023/10/05 00:26:33;;;;;;;8.48;2.90;;;11.50;99.90;;;;;;4948649;28;20075;-63
2023/10/05 00:31:44;;;;;;;9.93;3.08;;;11.50;99.90;;;;;;4949514;28;20388;-62
2023/10/05 00:34:15;;;;;;;9.88;3.28;;;11.50;99.90;;;;;;4952745;28;20086;-68
2023/10/05 00:36:43;;;;;;;16.70;3.95;;;11.40;99.90;;;;;;4951790;28;20515;-63
2023/10/05 00:39:09;;;;;;;7.43;3.50;;;11.40;99.90;;;;;;4945786;28;20046;-64
2023/10/05 00:41:36;;;;;;;7.07;3.65;;;11.30;99.90;;;;;;4946167;28;20019;-67
2023/10/05 00:44:05;;;;;;;9.35;2.63;;;11.30;99.90;;;;;;4952398;28;20023;-67
2023/10/05 00:46:38;;;;;;;5.85;3.03;;;11.20;99.90;;;;;;4947389;28;20035;-65
2023/10/05 00:49:12;;;;;;;6.40;3.10;;;11.20;99.90;;;;;;4954640;28;20032;-64
2023/10/05 00:51:39;;;;;;;9.00;2.95;;;11.20;99.90;;;;;;4947982;28;20031;-62
2023/10/05 00:54:11;;;;;;;10.05;3.15;;;11.10;99.90;;;;;;4958337;28;20026;-63
2023/10/05 00:56:40;;;;;;;13.68;3.20;;;11.20;99.90;;;;;;4953883;28;20415;-64
2023/10/05 00:59:09;;;;;;;11.20;3.55;;;11.30;99.90;;;;;;4981463;28;20041;-65
2023/10/05 01:04:34;;;;;;;7.55;3.10;;;11.20;99.90;;;;;;4945720;28;20035;-68
2023/10/05 01:14:52;;;;;;;;;;;11.00;99.90;;;;;;4956085;28;20031;-68
2023/10/05 01:17:27;;;;;;;10.77;3.00;;;10.90;99.90;;;;;;4958144;28;19918;-62
2023/10/05 01:19:58;;;;;;;11.98;3.90;;;10.90;99.90;;;;;;4953253;28;20036;-62
2023/10/05 01:22:38;;;;;;;14.90;4.40;;;10.90;99.90;;;;;;4951727;28;20039;-68
2023/10/05 01:25:04;;;;;;;4.80;2.80;;;10.90;99.90;;;;;;4950045;28;20039;-69
2023/10/05 01:27:36;;;;;;;5.53;3.10;;;10.90;99.90;;;;;;4955137;28;20406;-63
2023/10/05 01:30:03;;;;;;;10.15;3.40;;;11.00;99.90;;;;;;4950611;28;20035;-67
2023/10/05 01:32:29;;;;;;;6.80;3.40;;;11.00;99.90;;;;;;4946675;28;20790;-68
2023/10/05 01:34:55;;;;;;;5.27;2.73;;;10.90;99.90;;;;;;4937414;28;20082;-62
2023/10/05 01:37:26;;;;;;;5.45;3.08;;;10.90;99.90;;;;;;4939894;28;20035;-63
2023/10/05 01:39:52;;;;;;;9.15;3.67;;;10.90;99.90;;;;;;4947771;28;20047;-65
2023/10/05 01:42:18;;;;;;;12.40;3.85;;;10.80;99.90;;;;;;4953107;28;20452;-63
2023/10/05 01:44:47;;;;;;;11.45;2.83;;;10.80;99.90;;;;;;4944012;28;20047;-63
2023/10/05 01:47:16;;;;;;;14.43;3.22;;;10.70;99.90;;;;;;4947209;28;20495;-62
2023/10/05 01:49:46;;;;;;;12.05;3.50;;;10.70;99.90;;;;;;4949717;28;20134;-63
2023/10/05 01:52:17;;;;;;;11.43;3.25;;;10.70;99.90;;;;;;4955109;28;20775;-62
2023/10/05 01:54:44;;;;;;;7.80;3.33;;;10.60;99.90;;;;;;4980946;28;20114;-63
2023/10/05 01:57:12;;;;;;;11.05;3.58;;;10.60;99.90;;;;;;4951774;28;20042;-63
2023/10/05 01:59:40;;;;;;;7.05;3.50;;;10.60;99.90;;;;;;4947005;28;20070;-63
2023/10/05 02:02:11;;;;;;;11.57;3.58;;;10.60;99.90;;;;;;4948980;28;20066;-63
2023/10/05 02:04:42;;;;;;;9.73;3.67;;;10.60;99.90;;;;;;4945113;28;20039;-64
2023/10/05 02:07:09;;;;;;;11.38;3.53;;;10.60;99.90;;;;;;4950436;28;20042;-63
2023/10/05 02:09:38;;;;;;;6.55;3.15;;;10.70;99.90;;;;;;4950543;28;20034;-63
2023/10/05 02:12:06;;;;;;;6.18;2.97;;;10.50;99.90;;;;;;4949088;28;20023;-63
2023/10/05 02:14:41;;;;;;;11.48;3.78;;;10.60;99.90;;;;;;4952910;28;20118;-64
2023/10/05 02:17:07;;;;;;;6.80;3.10;;;10.60;99.90;;;;;;4953063;28;20043;-64
2023/10/05 02:19:36;;;;;;;7.15;3.90;;;10.60;99.90;;;;;;4953826;28;20034;-63
2023/10/05 02:22:04;;;;;;;6.03;3.60;;;10.70;99.90;;;;;;4953908;28;20516;-63
2023/10/05 02:24:30;;;;;;;7.22;3.78;;;10.50;99.90;;;;;;4950666;28;20031;-63
2023/10/05 02:29:31;;;;;;;10.93;3.92;;;10.50;99.90;;;;;;4952638;28;20070;-64
2023/10/05 02:34:44;;;;;;;6.70;3.15;;;10.50;99.90;;;;;;4948061;28;20035;-62
2023/10/05 02:37:12;;;;;;;10.05;3.42;;;10.40;99.90;;;;;;4949712;28;20031;-67
2023/10/05 02:39:39;;;;;;;11.23;3.75;;;10.40;99.90;;;;;;4951353;28;20586;-67
2023/10/05 02:42:12;;;;;;;7.50;3.80;;;10.40;99.90;;;;;;4949232;28;20027;-64
2023/10/05 02:44:44;;;;;;;7.05;3.45;;;10.30;99.90;;;;;;4953910;28;20191;-69
2023/10/05 02:47:10;;;;;;;7.78;3.60;;;10.30;99.90;;;;;;4941076;28;20102;-65
2023/10/05 02:49:43;;;;;;;7.22;3.55;;;10.30;99.90;;;;;;4948263;28;20118;-68
2023/10/05 02:52:16;;;;;;;12.02;4.05;;;10.30;99.90;;;;;;4943009;28;20082;-68
2023/10/05 02:54:47;;;;;;;9.48;3.30;;;10.40;99.90;;;;;;4943099;28;20513;-67
2023/10/05 02:57:16;;;;;;;7.82;3.20;;;10.40;99.90;;;;;;4949281;28;20439;-68
2023/10/05 02:59:44;;;;;;;9.65;3.55;;;10.40;99.90;;;;;;4951653;28;20061;-68
2023/10/05 03:02:14;;;;;;;7.38;3.42;;;10.40;99.90;;;;;;4950845;28;20039;-68
2023/10/05 03:04:57;;;;;;;15.20;3.95;;;10.20;99.90;;;;;;4947777;28;20050;-69
2023/10/05 03:07:26;;;;;;;9.25;4.00;;;10.30;99.90;;;;;;4954838;28;20638;-63
2023/10/05 03:09:58;;;;;;;6.25;3.33;;;10.20;99.90;;;;;;4951954;28;20032;-62
2023/10/05 03:12:24;;;;;;;10.77;3.92;;;10.30;99.90;;;;;;4949280;28;20665;-66
2023/10/05 03:14:51;;;;;;;7.70;3.80;;;10.20;99.90;;;;;;4945876;28;20027;-66
2023/10/05 03:17:21;;;;;;;10.20;3.72;;;10.20;99.90;;;;;;4943585;28;20043;-63
2023/10/05 03:19:47;;;;;;;8.90;3.72;;;10.20;99.90;;;;;;4948570;28;20567;-68
2023/10/05 03:22:12;;;;;;;9.48;3.13;;;10.20;99.90;;;;;;4946709;28;20034;-68
2023/10/05 03:24:44;;;;;;;7.43;2.97;;;10.10;99.90;;;;;;4953047;28;20071;-63
2023/10/05 03:27:14;;;;;;;16.27;3.53;;;10.10;99.90;;;;;;4946356;28;20027;-65
2023/10/05 03:29:44;;;;;;;9.63;2.97;;;10.00;99.90;;;;;;4979085;28;20037;-63
2023/10/05 03:34:42;;;;;;;9.00;3.20;;;10.00;99.90;;;;;;4948175;28;20042;-68
2023/10/05 03:37:15;;;;;;;6.95;3.03;;;10.00;99.90;;;;;;4946533;28;20057;-66
2023/10/05 03:42:22;;;;;;;9.25;3.88;;;10.00;99.90;;;;;;4945088;28;20039;-63
2023/10/05 03:45:11;;;;;;;11.13;3.22;;;9.90;99.90;;;;;;4946242;28;20532;-66
2023/10/05 03:47:37;;;;;;;7.40;3.72;;;10.00;99.90;;;;;;4948610;28;20043;-63
2023/10/05 03:50:05;;;;;;;7.75;4.03;;;10.00;99.90;;;;;;4946608;28;20765;-62
2023/10/05 03:52:32;;;;;;;10.70;3.97;;;9.90;99.90;;;;;;4945994;28;20778;-62
2023/10/05 03:55:10;;;;;;;8.27;3.83;;;9.80;99.90;;;;;;4946663;28;20031;-63
2023/10/05 03:57:37;;;;;;;9.88;3.88;;;9.90;99.90;;;;;;4950690;28;20959;-65
2023/10/05 04:00:23;;;;;;;8.77;3.67;;;10.00;99.90;;;;;;4949216;28;20046;-62
2023/10/05 04:02:50;;;;;;;11.10;3.63;;;9.90;99.90;;;;;;4978665;28;20070;-62
2023/10/05 04:05:20;;;;;;;10.40;3.47;;;9.90;99.90;;;;;;4955784;28;20034;-65
2023/10/05 04:07:47;;;;;;;9.95;3.92;;;9.90;99.90;;;;;;4945126;28;20104;-63
2023/10/05 04:10:15;;;;;;;10.65;4.70;;;10.00;99.90;;;;;;4942268;28;20581;-62
2023/10/05 04:12:41;;;;;;;9.07;3.60;;;9.90;99.90;;;;;;4947207;28;20126;-62
2023/10/05 04:15:11;;;;;;;7.40;3.72;;;10.00;99.90;;;;;;4946385;28;20126;-64
2023/10/05 04:17:38;;;;;;;7.00;3.15;;;10.00;99.90;;;;;;4945906;28;20087;-62
2023/10/05 04:20:09;;;;;;;14.77;4.18;;;10.00;99.90;;;;;;4948770;28;20148;-65
2023/10/05 04:22:38;;;;;;;15.40;4.15;;;9.90;99.90;;;;;;4946383;28;20026;-64
2023/10/05 04:25:04;;;;;;;10.50;3.88;;;9.90;99.90;;;;;;4945747;28;20118;-63
2023/10/05 04:27:30;;;;;;;9.98;3.72;;;9.80;99.90;;;;;;4959668;28;20027;-63
2023/10/05 04:29:56;;;;;;;8.40;3.40;;;9.80;99.90;;;;;;4951658;28;20134;-69
2023/10/05 04:32:22;;;;;;;10.90;3.40;;;9.90;99.90;;;;;;4949899;28;20106;-64
2023/10/05 04:34:47;;;;;;;13.30;4.23;;;9.90;99.90;;;;;;4945300;28;20039;-67
2023/10/05 04:37:13;;;;;;;10.63;3.97;;;9.80;99.90;;;;;;4947121;28;20027;-64
2023/10/05 04:39:40;;;;;;;8.53;3.53;;;9.90;99.90;;;;;;4951348;28;20440;-66
2023/10/05 04:42:11;;;;;;;11.48;4.05;;;9.80;99.90;;;;;;4942131;28;20388;-66
2023/10/05 04:44:37;;;;;;;9.10;3.70;;;9.80;99.90;;;;;;4944144;28;20042;-63
2023/10/05 04:47:04;;;;;;;7.78;3.80;;;9.70;99.90;;;;;;4950454;28;20102;-67
2023/10/05 04:49:30;;;;;;;13.85;4.82;;;9.80;99.90;;;;;;4949446;28;20032;-66
2023/10/05 04:51:57;;;;;;;12.45;3.63;;;9.90;99.90;;;;;;4950097;28;20027;-66
2023/10/05 04:54:26;;;;;;;14.75;4.38;;;9.70;99.90;;;;;;4949610;28;20085;-65
2023/10/05 04:57:03;;;;;;;9.20;3.80;;;9.80;99.90;;;;;;4951384;28;20059;-68
2023/10/05 04:59:48;;;;;;;14.18;4.05;;;9.70;99.90;;;;;;4950394;28;20038;-66
2023/10/05 05:02:35;;;;;;;13.77;4.68;;;9.80;99.90;;;;;;4950063;28;20577;-64
2023/10/05 05:07:45;;;;;;;13.02;3.58;;;9.70;99.90;;;;;;4960929;28;20078;-65
2023/10/05 05:10:11;;;;;;;9.73;4.00;;;9.60;99.90;;;;;;4950784;28;20035;-63
2023/10/05 05:12:38;;;;;;;9.93;3.88;;;9.70;99.90;;;;;;4952062;28;20620;-63
2023/10/05 05:15:05;;;;;;;12.60;3.80;;;9.70;99.90;;;;;;4951961;28;20681;-63
2023/10/05 05:17:32;;;;;;;8.45;3.88;;;9.60;99.90;;;;;;4984551;28;20837;-63
2023/10/05 05:19:58;;;;;;;12.45;3.55;;;9.60;99.90;;;;;;4954722;28;20051;-63
2023/10/05 05:22:24;;;;;;;10.87;3.70;;;9.50;99.90;;;;;;4951348;28;20035;-63
2023/10/05 05:24:50;;;;;;;13.17;4.47;;;9.60;99.90;;;;;;4954786;28;20081;-65
2023/10/05 05:29:42;;;;;;;9.80;4.07;;;9.60;99.90;;;;;;4951760;28;20031;-64
2023/10/05 05:32:10;;;;;;;15.68;4.70;;;9.60;99.90;;;;;;4952157;28;20620;-63
2023/10/05 05:34:42;;;;;;;19.58;5.95;;;9.70;99.90;;;;;;4983261;28;20034;-63
2023/10/05 05:37:25;;;;;;;16.33;4.20;;;9.50;99.90;;;;;;4948451;28;20027;-64
2023/10/05 05:39:53;;;;;;;9.10;3.38;;;9.60;99.90;;;;;;4950154;28;20121;-63
2023/10/05 05:42:19;;;;;;;13.10;3.92;;;9.60;99.90;;;;;;4947374;28;20027;-63
2023/10/05 05:44:44;;;;;;;8.18;3.65;;;9.60;99.90;;;;;;4952048;28;20751;-63
2023/10/05 05:47:11;;;;;;;9.53;3.97;;;9.60;99.90;;;;;;4947405;28;20389;-66
2023/10/05 05:49:41;;;;;;;13.60;4.63;;;9.60;99.90;;;;;;4948764;28;20286;-63
2023/10/05 05:52:10;;;;;;;10.90;3.90;;;9.50;99.90;;;;;;4949498;28;20035;-67
2023/10/05 05:54:36;;;;;;;13.88;3.92;;;9.50;99.90;;;;;;4951048;28;20038;-67
2023/10/05 05:57:06;;;;;;;12.73;4.23;;;9.60;99.90;;;;;;4950685;28;20500;-65
2023/10/05 05:59:34;;;;;;;11.50;4.93;;;9.50;99.90;;;;;;4945489;28;20075;-68
2023/10/05 06:02:10;;;;;;;7.97;3.58;;;9.60;99.90;;;;;;4948425;28;20066;-66
2023/10/05 06:04:39;;;;;;;9.45;4.18;;;9.60;99.90;;;;;;4949347;28;20050;-64
2023/10/05 06:07:11;;;;;;;14.70;4.47;;;9.70;99.90;;;;;;4982303;28;20384;-64
2023/10/05 06:09:39;;;;;;;14.77;5.18;;;9.60;99.90;;;;;;4949585;28;20037;-64
2023/10/05 06:12:05;;;;;;;16.90;5.68;;;9.60;99.90;;;;;;4947691;28;20047;-64
2023/10/05 06:14:34;;;;;;;13.77;4.03;;;9.70;99.90;;;;;;4950424;28;20449;-65
2023/10/05 06:17:00;;;;;;;8.65;4.03;;;9.70;99.90;;;;;;4952546;28;20118;-64
2023/10/05 06:19:27;;;;;;;12.43;4.38;;;9.80;99.90;;;;;;4946768;28;20449;-64
2023/10/05 06:21:52;;;;;;;13.70;4.15;;;9.80;99.90;;;;;;4948122;28;20039;-64
2023/10/05 06:24:18;;;;;;;11.67;4.20;;;9.80;99.90;;;;;;4948766;28;20041;-64
2023/10/05 06:26:45;;;;;;;14.30;5.10;;;9.80;99.90;;;;;;4946333;28;20396;-64
2023/10/05 06:29:11;;;;;;;11.10;4.50;;;9.90;99.90;;;;;;4947186;28;20035;-68
2023/10/05 06:31:37;;;;;;;12.23;4.88;;;9.80;99.90;;;;;;4953933;28;20677;-64
2023/10/05 06:34:10;;;;;;;10.68;4.30;;;9.90;99.90;;;;;;4959172;28;20047;-64
2023/10/05 06:36:37;;;;;;;10.52;4.03;;;9.90;99.90;;;;;;4950904;28;20034;-65
2023/10/05 06:39:04;;;;;;;9.00;4.30;;;10.00;99.90;;;;;;4950160;28;20094;-66
2023/10/05 06:41:30;;;;;;;11.43;4.35;;;10.10;99.90;;;;;;4947511;28;20782;-69
2023/10/05 06:43:57;;;;;;;10.00;4.13;;;10.10;99.90;;;;;;4950845;28;20035;-68
2023/10/05 06:46:26;;;;;;;12.13;4.05;;;10.40;99.90;;;;;;4948527;28;20295;-68
2023/10/05 06:48:52;;;;;;;10.48;4.03;;;10.50;99.90;;;;;;4946671;28;20019;-67
2023/10/05 06:51:26;;;;;;;12.13;3.80;;;10.60;99.90;;;;;;4950825;28;20659;-64
2023/10/05 06:53:52;;;;;;;11.07;3.58;;;10.90;99.90;;;;;;4949183;28;20035;-68
2023/10/05 06:56:20;;;;;;;12.98;4.80;;;11.10;99.90;;;;;;4947195;28;20037;-65
2023/10/05 06:58:45;;;;;;;13.18;6.50;;;11.20;99.90;;;;;;4949331;28;20046;-65
2023/10/05 07:01:11;;;;;;;10.97;6.40;;;11.60;99.90;;;;;;4950554;28;20034;-67
2023/10/05 07:03:38;;;;;;;16.40;7.03;;;11.90;99.90;;;;;;4948007;28;20518;-66
2023/10/05 07:06:04;;;;;;;12.75;6.07;;;12.10;99.90;;;;;;4943176;28;20069;-63
2023/10/05 07:08:33;;;;;;;15.27;4.95;;;12.00;99.90;;;;;;4939654;28;20451;-63
2023/10/05 07:10:59;;;;;;;7.70;4.72;;;12.20;99.90;;;;;;4949595;28;20078;-67
2023/10/05 07:13:28;;;;;;;13.32;5.72;;;12.00;99.90;;;;;;4942871;28;20055;-66
2023/10/05 07:15:57;;;;;;;11.13;4.28;;;12.00;99.90;;;;;;4945924;28;20051;-67
2023/10/05 07:18:24;;;;;;;12.05;5.60;;;12.00;99.90;;;;;;4948092;28;20045;-64
2023/10/05 07:20:50;;;;;;;9.55;4.68;;;12.20;99.90;;;;;;4948288;28;20078;-64
2023/10/05 07:23:16;;;;;;;13.37;4.80;;;12.20;99.90;;;;;;4946623;28;20502;-63
2023/10/05 07:25:41;;;;;;;19.33;5.03;;;12.50;99.90;;;;;;4948541;28;20039;-63
2023/10/05 07:28:14;;;;;;;9.57;4.43;;;12.40;99.90;;;;;;4951080;28;20141;-69
2023/10/05 07:30:43;;;;;;;6.85;4.28;;;12.70;99.90;;;;;;4947866;28;20125;-65
2023/10/05 07:33:08;;;;;;;19.13;5.22;;;12.60;99.90;;;;;;4948703;28;20228;-74
2023/10/05 07:35:36;;;;;;;10.10;4.40;;;12.60;99.90;;;;;;4980959;28;20061;-76
2023/10/05 07:38:02;;;;;;;26.08;5.60;;;12.90;99.90;;;;;;4948681;28;20299;-79
2023/10/05 07:40:28;;;;;;;13.25;5.57;;;12.90;99.90;;;;;;4945894;28;20102;-74
2023/10/05 07:42:54;;;;;;;13.50;5.00;;;12.90;99.90;;;;;;4941971;28;20055;-71
2023/10/05 07:45:19;;;;;;;11.32;4.32;;;13.40;99.90;;;;;;4947480;28;20114;-74
2023/10/05 07:47:49;;;;;;;23.77;5.17;;;14.40;99.90;;;;;;4945611;28;20126;-71
2023/10/05 07:50:15;;;;;;;15.57;4.13;;;14.80;99.90;;;;;;4952097;28;20505;-69
2023/10/05 07:52:43;;;;;;;13.02;3.58;;;16.10;99.90;;;;;;4945414;28;20031;-74
2023/10/05 07:55:10;;;;;;;10.02;4.05;;;16.20;99.90;;;;;;4944626;28;20109;-71
2023/10/05 07:57:35;;;;;;;20.50;5.35;;;15.60;99.90;;;;;;4944784;28;20110;-68
2023/10/05 08:00:04;;;;;;;12.10;4.17;;;16.00;99.90;;;;;;4956016;28;20594;-71
2023/10/05 08:02:30;;;;;;;9.63;4.15;;;16.00;99.90;;;;;;4948295;28;20167;-74
2023/10/05 08:04:55;;;;;;;13.07;5.47;;;16.80;97.80;;;;;;4946568;28;20437;-69
2023/10/05 08:07:21;;;;;;;10.57;4.53;;;16.70;96.40;;;;;;4954441;28;20032;-76
2023/10/05 08:09:48;;;;;;;9.18;4.32;;;18.60;93.70;;;;;;4949734;28;20069;-68
2023/10/05 08:12:15;;;;;;;9.80;5.25;;;20.60;88.90;;;;;;4947611;28;20093;-69
2023/10/05 08:14:41;;;;;;;10.95;4.65;;;21.50;87.60;;;;;;4947641;28;20058;-67
2023/10/05 08:17:08;;;;;;;9.95;5.65;;;22.00;91.00;;;;;;4975610;28;20035;-65
2023/10/05 08:19:34;;;;;;;14.93;5.13;;;22.50;92.90;;;;;;4944426;28;20035;-65
2023/10/05 08:22:00;;;;;;;8.77;4.20;;;23.50;88.70;;;;;;4947935;28;20035;-66
2023/10/05 08:24:27;;;;;;;11.50;4.47;;;24.00;81.40;;;;;;4949543;28;20046;-67
2023/10/05 08:26:56;;;;;;;11.60;4.25;;;24.10;72.60;;;;;;4950016;28;20278;-66
2023/10/05 08:29:22;;;;;;;13.45;4.53;;;23.80;65.00;;;;;;4948229;28;20039;-65
2023/10/05 08:31:52;;;;;;;7.80;4.40;;;23.90;66.50;;;;;;4950543;28;20046;-65
2023/10/05 08:34:23;;;;;;;7.38;4.07;;;23.30;66.20;;;;;;4951710;28;20027;-64
2023/10/05 08:36:55;;;;;;;10.88;3.90;;;23.80;66.40;;;;;;4949138;28;20066;-69
2023/10/05 08:39:27;;;;;;;8.57;3.72;;;24.10;66.30;;;;;;4943643;28;20039;-64
2023/10/05 08:42:06;;;;;;;7.78;4.35;;;24.50;65.70;;;;;;4949650;28;20039;-70
2023/10/05 08:44:38;;;;;;;16.17;5.32;;;24.70;65.40;;;;;;4947337;28;20046;-67
2023/10/05 08:47:07;;;;;;;11.20;4.88;;;25.00;64.30;;;;;;4949340;28;20058;-69
2023/10/05 08:49:36;;;;;;;11.20;5.25;;;25.40;64.20;;;;;;4949440;28;20042;-65
2023/10/05 08:52:12;;;;;;;9.77;4.85;;;25.90;65.00;;;;;;4947299;28;20093;-65
2023/10/05 08:54:38;;;;;;;10.63;4.22;;;25.80;69.10;;;;;;4949716;28;20036;-66
2023/10/05 08:57:10;;;;;;;11.50;5.00;;;25.90;72.30;;;;;;4949613;28;20040;-66
2023/10/05 08:59:39;;;;;;;8.82;4.18;;;25.70;72.30;;;;;;4949300;28;20511;-65
2023/10/05 09:02:08;;;;;;;12.38;4.82;;;26.20;72.30;;;;;;4946213;28;20028;-68
2023/10/05 09:04:47;;;;;;;9.40;4.78;;;26.70;75.90;;;;;;4949848;28;20391;-67
2023/10/05 09:07:37;;;;;;;8.10;4.45;;;26.80;76.40;;;;;;4947344;28;20038;-65
2023/10/05 09:10:08;;;;;;;11.20;4.75;;;26.70;75.10;;;;;;4948410;28;20035;-64
2023/10/05 09:12:34;;;;;;;10.55;4.97;;;28.00;78.70;;;;;;4950853;28;20023;-65
2023/10/05 09:15:21;;;;;;;9.18;3.85;;;26.70;81.00;;;;;;4951475;28;20062;-65
2023/10/05 09:17:57;;;;;;;18.98;5.10;;;;;;;;;;4945684;28;20051;-67
2023/10/05 09:20:35;;;;;;;8.93;4.20;;;27.60;89.30;;;;;;4950517;28;20119;-66
2023/10/05 09:23:04;;;;;;;12.93;5.32;;;;;;;;;;4950079;28;20055;-66
2023/10/05 09:25:38;;;;;;;11.07;4.65;;;;;;;;;;4949136;28;20152;-64
2023/10/05 09:28:09;;;;;;;10.18;4.10;;;;;;;;;;4948959;28;20034;-66
2023/10/05 09:30:46;;;;;;;11.88;4.40;;;;;;;;;;4949572;28;20109;-65
2023/10/05 09:33:18;;;;;;;9.30;4.05;;;;;;;;;;4948447;28;20858;-65
2023/10/05 09:35:46;;;;;;;6.43;3.58;;;;;;;;;;4948994;28;20066;-64
2023/10/05 09:38:17;;;;;;;8.40;4.07;;;;;;;;;;4945690;28;20043;-64
2023/10/05 09:40:47;;;;;;;7.30;4.03;;;;;;;;;;4943023;28;20110;-65
2023/10/05 09:43:18;;;;;;;9.20;3.72;;;21.10;95.60;;;;;;4943921;28;20050;-64
2023/10/05 09:45:48;;;;;;;10.73;4.47;;;20.80;95.20;;;;;;4949929;28;20042;-66
2023/10/05 09:48:16;;;;;;;9.32;4.30;;;21.00;95.30;;;;;;4947792;28;20058;-65
2023/10/05 09:50:43;;;;;;;14.43;4.70;;;21.30;95.30;;;;;;4946561;28;20130;-68
2023/10/05 09:53:11;;;;;;;11.95;4.57;;;20.90;95.10;;;;;;4979978;28;20027;-66
2023/10/05 09:55:40;;;;;;;11.02;4.43;;;20.20;95.30;;;;;;4951104;28;20118;-66
2023/10/05 09:58:12;;;;;;;6.93;3.95;;;19.90;95.00;;;;;;4980010;28;20035;-65
2023/10/05 10:03:05;;;;;;;9.60;3.90;;;20.10;95.30;;;;;;4946278;28;20487;-65
2023/10/05 10:05:48;;;;;;;8.95;4.50;;;19.70;94.90;;;;;;4947866;28;20043;-69
2023/10/05 10:08:23;;;;;;;11.65;4.43;;;19.60;95.00;;;;;;4949359;28;20028;-64
2023/10/05 10:11:18;;;;;;;8.10;4.75;;;19.50;94.20;;;;;;4943280;28;20050;-68
2023/10/05 10:14:01;;;;;;;12.65;4.50;;;19.60;94.90;;;;;;4943920;28;20035;-64
2023/10/05 10:16:28;;;;;;;15.23;4.10;;;19.50;95.00;;;;;;4947605;28;20130;-65
2023/10/05 10:19:18;;;;;;;8.07;4.13;;;19.30;95.00;;;;;;4947045;28;20047;-68
2023/10/05 10:21:57;;;;;;;13.95;5.40;;;19.20;94.70;;;;;;4947175;28;20512;-69
2023/10/05 10:24:28;;;;;;;7.82;4.30;;;19.30;95.30;;;;;;4948842;28;20105;-66
2023/10/05 10:27:11;;;;;;;10.35;4.70;;;19.40;95.60;;;;;;4946625;28;20031;-66
2023/10/05 10:30:12;;;;;;;9.20;4.43;;;19.00;95.40;;;;;;4948382;28;20039;-69
2023/10/05 10:32:38;;;;;;;11.38;4.28;;;19.00;95.60;;;;;;4943234;28;20047;-70
2023/10/05 10:35:10;;;;;;;14.98;4.65;;;18.90;96.30;;;;;;4948820;28;20031;-69
2023/10/05 10:37:44;;;;;;;10.60;5.00;;;19.00;96.20;;;;;;4948407;28;20034;-66
2023/10/05 10:45:33;;;;;;;6.35;3.72;;;19.00;96.70;;;;;;4947715;28;20031;-65
2023/10/05 10:48:00;;;;;;;6.18;3.58;;;18.70;96.70;;;;;;4944068;28;20031;-63
2023/10/05 10:50:30;;;;;;;9.55;4.60;;;18.80;96.60;;;;;;4949947;28;20026;-63
2023/10/05 10:52:58;;;;;;;7.10;3.60;;;18.80;97.00;;;;;;4948804;28;20034;-66
2023/10/05 10:55:31;;;;;;;9.25;3.65;;;18.70;96.90;;;;;;4947046;28;20027;-64
2023/10/05 10:58:04;;;;;;;8.18;4.18;;;18.70;97.40;;;;;;4948127;28;20081;-68
2023/10/05 11:03:15;;;;;;;12.73;4.22;;;19.10;97.70;;;;;;4945600;28;20023;-67
2023/10/05 11:05:51;;;;;;;9.68;4.50;;;19.00;96.40;;;;;;4947835;28;20042;-63
2023/10/05 11:08:21;;;;;;;9.27;4.00;;;18.80;97.20;;;;;;4946041;28;20030;-63
2023/10/05 11:11:16;;;;;;;9.52;4.38;;;19.20;97.60;;;;;;4945127;28;20039;-65
2023/10/05 11:13:49;;;;;;;9.85;3.83;;;19.00;97.30;;;;;;4942225;28;20035;-65
2023/10/05 11:16:19;;;;;;;8.93;4.07;;;19.00;96.90;;;;;;4947744;28;20038;-64
2023/10/05 11:18:57;;;;;;;10.25;4.05;;;19.10;96.60;;;;;;4940625;28;20046;-64
2023/10/05 11:21:27;;;;;;;8.07;3.75;;;19.10;97.50;;;;;;4943349;28;20464;-64
2023/10/05 11:23:56;;;;;;;10.32;4.30;;;19.30;97.40;;;;;;4948104;28;20073;-66
2023/10/05 11:27:07;;;;;;;9.48;3.92;;;19.20;97.20;;;;;;4946899;28;20034;-69
2023/10/05 11:29:15;;;;;;;8.93;4.68;;;19.20;96.60;;;;;;4951111;28;20047;-64
2023/10/05 11:31:42;;;;;;;9.68;3.22;;;19.40;96.80;;;;;;4972074;28;20562;-65
2023/10/05 11:34:12;;;;;;;7.27;3.47;;;19.40;97.10;;;;;;4941686;28;20035;-65
2023/10/05 11:36:44;;;;;;;17.10;4.10;;;19.40;96.20;;;;;;4978954;28;20038;-67
2023/10/05 11:39:22;;;;;;;10.38;4.00;;;19.70;96.40;;;;;;4945796;28;20130;-64
2023/10/05 11:41:48;;;;;;;11.60;3.72;;;19.70;96.90;;;;;;4942808;28;20543;-65
2023/10/05 11:44:27;;;;;;;;;;;20.00;96.40;;;;;;4947736;28;20110;-63
2023/10/05 11:46:59;;;;;;;6.82;3.65;;;19.90;96.00;;;;;;4947238;28;19910;-64
2023/10/05 11:49:31;;;;;;;10.85;4.50;;;20.00;95.90;;;;;;4946654;28;20059;-68
2023/10/05 11:51:57;;;;;;;7.68;3.90;;;20.00;95.60;;;;;;4946959;28;20074;-68
2023/10/05 11:54:24;;;;;;;8.18;4.50;;;20.20;96.30;;;;;;4948424;28;20070;-68
2023/10/05 11:56:55;;;;;;;11.40;3.38;;;20.20;95.90;;;;;;4944811;28;20413;-64
2023/10/05 11:59:28;;;;;;;7.10;4.07;;;20.30;96.00;;;;;;4947164;28;20047;-64
2023/10/05 12:01:54;;;;;;;10.10;4.20;;;20.40;96.40;;;;;;4946624;28;20027;-65
2023/10/05 12:04:19;;;;;;;9.73;3.97;;;20.40;95.40;;;;;;4945479;28;20042;-65
2023/10/05 12:06:58;;;;;;;7.77;3.50;;;20.50;95.60;;;;;;4947015;28;20668;-65
2023/10/05 12:09:27;;;;;;;7.82;4.00;;;20.70;94.80;;;;;;4945546;28;20039;-64
2023/10/05 12:11:58;;;;;;;10.52;3.85;;;20.70;95.20;;;;;;4947007;28;20488;-64
2023/10/05 12:14:24;;;;;;;9.35;3.78;;;20.70;94.70;;;;;;4946580;28;20448;-66
2023/10/05 12:16:52;;;;;;;8.38;3.53;;;20.50;96.10;;;;;;4944880;28;20961;-66
2023/10/05 12:19:27;;;;;;;11.13;4.07;;;20.70;96.20;;;;;;4943839;28;20032;-64
2023/10/05 12:21:55;;;;;;;15.20;4.50;;;20.80;95.30;;;;;;4947073;28;20043;-63
2023/10/05 12:24:21;;;;;;;9.80;3.95;;;20.90;94.40;;;;;;4945247;28;20027;-65
2023/10/05 12:26:47;;;;;;;13.65;3.70;;;20.70;94.70;;;;;;4942637;28;20050;-67
2023/10/05 12:29:13;;;;;;;11.45;3.70;;;20.70;94.70;;;;;;4950858;28;20035;-66
2023/10/05 12:31:44;;;;;;;8.02;3.45;;;20.90;94.60;;;;;;4947698;28;20051;-67
2023/10/05 12:34:16;;;;;;;10.98;3.60;;;21.00;94.00;;;;;;4946666;28;20034;-66
2023/10/05 12:36:51;;;;;;;10.43;3.75;;;21.00;95.50;;;;;;4945566;28;20053;-64
2023/10/05 12:39:20;;;;;;;12.50;4.22;;;21.10;95.30;;;;;;4976579;28;20028;-66
2023/10/05 12:41:48;;;;;;;7.28;3.83;;;21.10;94.30;;;;;;4946893;28;20042;-65
2023/10/05 12:44:14;;;;;;;6.10;3.10;;;21.10;95.30;;;;;;4945499;28;20031;-63
2023/10/05 12:46:48;;;;;;;9.25;3.80;;;20.90;96.10;;;;;;4946307;28;20039;-64
2023/10/05 12:49:14;;;;;;;6.15;3.47;;;21.00;95.00;;;;;;4940185;28;20039;-67
2023/10/05 12:51:47;;;;;;;7.70;3.70;;;21.00;95.70;;;;;;4946123;28;20495;-66
2023/10/05 12:54:19;;;;;;;16.08;4.20;;;21.10;95.10;;;;;;4973177;28;20035;-65
2023/10/05 12:56:45;;;;;;;14.98;4.78;;;21.00;93.80;;;;;;4944413;28;20094;-67
2023/10/05 12:59:11;;;;;;;12.25;4.60;;;20.90;94.00;;;;;;4940107;28;20118;-65
2023/10/05 13:01:41;;;;;;;7.22;3.80;;;21.00;95.70;;;;;;4945877;28;20519;-67
2023/10/05 13:04:17;;;;;;;9.57;3.90;;;21.20;95.00;;;;;;4944524;28;20536;-65
2023/10/05 13:06:45;;;;;;;5.82;3.40;;;21.40;94.60;;;;;;4943155;28;20023;-65
2023/10/05 13:09:13;;;;;;;9.40;4.10;;;21.40;95.40;;;;;;4950234;28;20464;-65
2023/10/05 13:11:45;;;;;;;15.10;4.03;;;21.30;94.90;;;;;;4947713;28;20041;-68
2023/10/05 13:14:19;;;;;;;7.35;4.53;;;21.70;94.70;;;;;;4948190;28;20027;-67
2023/10/05 13:16:48;;;;;;;8.85;3.42;;;21.50;93.70;;;;;;4948581;28;20115;-67
2023/10/05 13:19:14;;;;;;;13.88;3.60;;;21.40;95.30;;;;;;4946625;28;20031;-67
2023/10/05 13:21:42;;;;;;;5.40;3.20;;;21.40;95.80;;;;;;4953933;28;20573;-65
2023/10/05 13:24:11;;;;;;;9.23;3.75;;;21.40;93.60;;;;;;4944838;28;20094;-66
2023/10/05 13:26:46;;;;;;;9.60;3.28;;;21.40;95.00;;;;;;4951298;28;20203;-64
2023/10/05 13:29:16;;;;;;;7.50;3.03;;;21.40;93.70;;;;;;4947029;28;20110;-68
2023/10/05 13:31:42;;;;;;;10.48;4.35;;;21.30;95.10;;;;;;4947428;28;20195;-65
2023/10/05 13:34:16;;;;;;;10.93;3.60;;;21.20;93.90;;;;;;4951619;28;20142;-65
2023/10/05 13:36:43;;;;;;;9.30;3.42;;;21.40;94.20;;;;;;4941925;28;20082;-67
2023/10/05 13:39:14;;;;;;;8.18;3.53;;;21.30;94.80;;;;;;4948861;28;20054;-68
2023/10/05 13:41:46;;;;;;;5.90;3.53;;;21.40;93.80;;;;;;4974989;28;20031;-67
2023/10/05 13:44:12;;;;;;;8.00;3.60;;;21.30;93.50;;;;;;4944907;28;20038;-68